createdAt,value
2019-01-10T00:01:58.105Z,0.20
2019-01-10T00:04:29.409Z,0.20
2019-01-10T00:07:00.540Z,0.20
2019-01-10T00:09:31.800Z,0.20
2019-01-10T00:12:02.886Z,0.30
2019-01-10T00:14:34.212Z,0.20
2019-01-10T00:17:05.293Z,0.30
2019-01-10T00:19:36.660Z,0.30
2019-01-10T00:22:08.449Z,0.30
2019-01-10T00:24:39.692Z,0.20
2019-01-10T00:27:10.768Z,0.30
2019-01-10T00:29:42.078Z,0.20
2019-01-10T00:32:13.237Z,0.20
2019-01-10T00:34:44.480Z,0.20
2019-01-10T00:37:15.544Z,0.20
2019-01-10T00:39:48.060Z,0.20
2019-01-10T00:42:19.115Z,0.10
2019-01-10T00:44:50.660Z,0.10
2019-01-10T00:47:23.179Z,0.20
2019-01-10T00:49:54.462Z,0.10
2019-01-10T00:52:25.522Z,0.10
2019-01-10T00:54:56.972Z,0.10
2019-01-10T00:57:28.222Z,0.10
2019-01-10T01:00:00.577Z,0.00
2019-01-10T01:02:31.759Z,0.00
2019-01-10T01:05:02.926Z,0.00
2019-01-10T01:07:34.126Z,-0.10
2019-01-10T01:10:07.625Z,-0.10
2019-01-10T01:12:38.796Z,-0.20
2019-01-10T01:15:12.174Z,-0.20
2019-01-10T01:17:43.429Z,-0.30
2019-01-10T01:20:15.800Z,-0.30
2019-01-10T01:22:48.476Z,-0.40
2019-01-10T01:25:19.998Z,-0.40
2019-01-10T01:27:51.101Z,-0.50
2019-01-10T01:30:24.173Z,-0.50
2019-01-10T01:32:55.268Z,-0.50
2019-01-10T01:35:26.562Z,-0.50
2019-01-10T01:37:57.640Z,-0.50
2019-01-10T01:40:29.118Z,-0.50
2019-01-10T01:43:07.341Z,-0.50
2019-01-10T01:45:33.268Z,-0.60
2019-01-10T01:48:04.424Z,-0.70
2019-01-10T01:50:35.679Z,-0.70
2019-01-10T01:53:07.868Z,-0.80
2019-01-10T01:55:39.113Z,-0.70
2019-01-10T01:58:10.230Z,-0.70
2019-01-10T02:00:41.549Z,-0.70
2019-01-10T02:03:12.978Z,-0.70
2019-01-10T02:05:44.246Z,-0.80
2019-01-10T02:08:15.322Z,-0.70
2019-01-10T02:10:46.624Z,-0.70
2019-01-10T02:13:17.771Z,-0.60
2019-01-10T02:15:49.118Z,-0.60
2019-01-10T02:18:20.214Z,-0.60
2019-01-10T02:20:51.600Z,-0.50
2019-01-10T02:23:22.676Z,-0.50
2019-01-10T02:25:53.936Z,-0.50
2019-01-10T02:28:25.130Z,-0.40
2019-01-10T02:30:56.430Z,-0.40
2019-01-10T02:33:27.482Z,-0.30
2019-01-10T02:35:58.757Z,-0.30
2019-01-10T02:38:29.918Z,-0.30
2019-01-10T02:41:02.771Z,-0.30
2019-01-10T02:43:35.403Z,-0.30
2019-01-10T02:46:06.753Z,-0.30
2019-01-10T02:48:37.816Z,-0.20
2019-01-10T02:51:09.628Z,-0.20
2019-01-10T02:53:40.696Z,-0.20
2019-01-10T02:56:11.936Z,-0.20
2019-01-10T02:58:43.011Z,-0.20
2019-01-10T03:01:14.912Z,-0.30
2019-01-10T03:03:45.959Z,-0.30
2019-01-10T03:06:17.284Z,-0.30
2019-01-10T03:08:48.386Z,-0.20
2019-01-10T03:11:20.102Z,-0.20
2019-01-10T03:13:51.181Z,-0.20
2019-01-10T03:16:22.482Z,-0.20
2019-01-10T03:18:53.545Z,-0.30
2019-01-10T03:21:24.817Z,-0.30
2019-01-10T03:23:56.988Z,-0.30
2019-01-10T03:26:28.344Z,-0.30
2019-01-10T03:28:59.420Z,-0.40
2019-01-10T03:31:30.888Z,-0.40
2019-01-10T03:34:01.948Z,-0.30
2019-01-10T03:36:34.512Z,-0.30
2019-01-10T03:39:08.920Z,-0.30
2019-01-10T03:41:40.584Z,-0.20
2019-01-10T03:44:11.706Z,-0.20
2019-01-10T03:46:42.938Z,-0.30
2019-01-10T03:49:14.073Z,-0.40
2019-01-10T03:51:45.465Z,-0.40
2019-01-10T03:54:16.712Z,-0.50
2019-01-10T03:56:47.974Z,-0.60
2019-01-10T03:59:19.072Z,-0.60
2019-01-10T04:01:50.322Z,-0.70
2019-01-10T04:04:21.440Z,-0.60
2019-01-10T04:06:52.844Z,-0.70
2019-01-10T04:09:23.950Z,-0.60
2019-01-10T04:11:55.192Z,-0.60
2019-01-10T04:14:26.290Z,-0.60
2019-01-10T04:16:59.212Z,-0.50
2019-01-10T04:19:30.347Z,-0.50
2019-01-10T04:22:01.846Z,-0.60
2019-01-10T04:24:33.339Z,-0.60
2019-01-10T04:27:04.486Z,-0.60
2019-01-10T04:29:37.414Z,-0.60
2019-01-10T04:32:09.892Z,-0.60
2019-01-10T04:34:40.976Z,-0.60
2019-01-10T04:37:12.394Z,-0.60
2019-01-10T04:39:43.488Z,-0.60
2019-01-10T04:42:14.876Z,-0.50
2019-01-10T04:44:46.019Z,-0.60
2019-01-10T04:47:17.369Z,-0.60
2019-01-10T04:49:48.780Z,-0.60
2019-01-10T04:52:20.114Z,-0.70
2019-01-10T04:54:56.145Z,-0.60
2019-01-10T04:57:24.227Z,-0.60
2019-01-10T04:59:55.304Z,-0.70
2019-01-10T05:02:26.612Z,-0.70
2019-01-10T05:04:57.993Z,-0.60
2019-01-10T05:07:29.380Z,-0.60
2019-01-10T05:10:00.544Z,-0.70
2019-01-10T05:12:31.976Z,-0.80
2019-01-10T05:15:03.098Z,-0.90
2019-01-10T05:17:34.478Z,-1.00
2019-01-10T05:20:07.212Z,-1.00
2019-01-10T05:22:38.442Z,-1.10
2019-01-10T05:25:09.603Z,-1.00
2019-01-10T05:27:40.758Z,-1.00
2019-01-10T05:30:17.970Z,-1.00
2019-01-10T05:32:49.425Z,-0.90
2019-01-10T05:35:22.597Z,-0.90
2019-01-10T05:37:53.859Z,-0.90
2019-01-10T05:40:24.937Z,-1.00
2019-01-10T05:42:56.134Z,-1.10
2019-01-10T05:45:27.307Z,-1.10
2019-01-10T05:47:59.755Z,-1.00
2019-01-10T05:50:30.853Z,-1.10
2019-01-10T05:53:02.257Z,-1.10
2019-01-10T05:55:33.405Z,-1.10
2019-01-10T05:58:04.844Z,-1.10
2019-01-10T06:00:35.949Z,-1.00
2019-01-10T06:03:07.183Z,-1.00
2019-01-10T06:05:38.290Z,-1.00
2019-01-10T06:08:09.480Z,-1.00
2019-01-10T06:10:40.642Z,-1.00
2019-01-10T06:13:11.869Z,-1.00
2019-01-10T06:15:44.580Z,-1.00
2019-01-10T06:18:15.761Z,-1.00
2019-01-10T06:20:46.912Z,-0.90
2019-01-10T06:23:18.529Z,-0.80
2019-01-10T06:25:49.603Z,-0.80
2019-01-10T06:28:20.862Z,-0.80
2019-01-10T06:30:52.086Z,-0.80
2019-01-10T06:33:23.341Z,-0.80
2019-01-10T06:35:54.435Z,-0.90
2019-01-10T06:38:25.790Z,-0.90
2019-01-10T06:40:58.660Z,-0.80
2019-01-10T06:43:30.036Z,-0.70
2019-01-10T06:46:01.150Z,-0.70
2019-01-10T06:48:32.520Z,-0.60
2019-01-10T06:51:03.959Z,-0.50
2019-01-10T06:53:35.142Z,-0.50
2019-01-10T06:56:06.225Z,-0.50
2019-01-10T06:58:37.813Z,-0.50
2019-01-10T07:01:08.913Z,-0.30
2019-01-10T07:03:40.309Z,-0.40
2019-01-10T07:06:11.400Z,-0.50
2019-01-10T07:08:42.838Z,-0.50
2019-01-10T07:11:13.912Z,-0.40
2019-01-10T07:13:45.134Z,-0.40
2019-01-10T07:16:16.226Z,-0.50
2019-01-10T07:18:47.564Z,-0.40
2019-01-10T07:21:19.902Z,-0.60
2019-01-10T07:23:51.294Z,-0.60
2019-01-10T07:26:22.372Z,-0.60
2019-01-10T07:28:53.572Z,-0.50
2019-01-10T07:31:28.060Z,-0.40
2019-01-10T07:34:03.050Z,-0.40
2019-01-10T07:36:35.338Z,-0.30
2019-01-10T07:39:09.036Z,-0.30
2019-01-10T07:41:42.258Z,-0.30
2019-01-10T07:44:13.452Z,-0.30
2019-01-10T07:46:47.679Z,-0.30
2019-01-10T07:49:23.606Z,-0.30
2019-01-10T07:51:54.732Z,-0.30
2019-01-10T07:54:26.208Z,-0.20
2019-01-10T07:56:57.349Z,-0.10
2019-01-10T07:59:28.600Z,-0.10
2019-01-10T08:01:59.708Z,-0.10
2019-01-10T08:04:31.078Z,0.00
2019-01-10T08:07:02.222Z,0.00
2019-01-10T08:09:33.573Z,0.00
2019-01-10T08:12:04.865Z,0.00
2019-01-10T08:14:37.812Z,0.00
2019-01-10T08:17:15.932Z,0.00
2019-01-10T08:19:42.030Z,0.00
2019-01-10T08:22:13.142Z,0.00
2019-01-10T08:24:44.430Z,0.10
2019-01-10T08:27:17.584Z,0.10
2019-01-10T08:29:48.798Z,0.10
2019-01-10T08:32:19.920Z,0.00
2019-01-10T08:34:51.374Z,0.10
2019-01-10T08:37:22.536Z,0.00
2019-01-10T08:39:53.945Z,0.00
2019-01-10T08:42:26.466Z,0.10
2019-01-10T08:44:57.781Z,0.00
2019-01-10T08:47:30.037Z,0.00
2019-01-10T08:50:01.925Z,0.00
2019-01-10T08:52:33.015Z,0.10
2019-01-10T08:55:04.896Z,0.00
2019-01-10T08:57:35.988Z,0.00
2019-01-10T09:00:10.808Z,0.10
2019-01-10T09:02:44.020Z,0.20
2019-01-10T09:05:15.835Z,0.20
2019-01-10T09:07:47.146Z,0.20
2019-01-10T09:10:21.441Z,0.20
2019-01-10T09:12:52.544Z,0.00
2019-01-10T09:15:33.913Z,0.10
2019-01-10T09:17:56.750Z,0.10
2019-01-10T09:20:28.204Z,0.10
2019-01-10T09:23:11.406Z,0.10
2019-01-10T09:25:42.730Z,0.20
2019-01-10T09:28:13.860Z,0.10
2019-01-10T09:30:45.046Z,0.10
2019-01-10T09:33:16.140Z,0.10
2019-01-10T09:35:47.699Z,0.10
2019-01-10T09:38:18.782Z,0.10
2019-01-10T09:40:50.017Z,0.20
2019-01-10T09:43:21.099Z,0.30
2019-01-10T09:45:52.436Z,0.20
2019-01-10T09:48:23.530Z,0.10
2019-01-10T09:50:56.034Z,0.20
2019-01-10T09:53:27.101Z,0.10
2019-01-10T09:55:58.308Z,0.20
2019-01-10T09:58:29.389Z,0.40
2019-01-10T10:01:00.576Z,0.40
2019-01-10T10:03:31.760Z,0.50
2019-01-10T10:06:07.815Z,0.50
2019-01-10T10:08:35.908Z,0.60
2019-01-10T10:11:07.248Z,0.70
2019-01-10T10:13:38.297Z,0.70
2019-01-10T10:16:09.646Z,0.70
2019-01-10T10:18:40.695Z,0.80
2019-01-10T10:21:11.928Z,0.80
2019-01-10T10:23:54.631Z,0.70
2019-01-10T10:26:25.988Z,0.70
2019-01-10T10:28:57.062Z,0.80
2019-01-10T10:31:28.470Z,0.80
2019-01-10T10:33:59.514Z,0.80
2019-01-10T10:36:30.965Z,1.00
2019-01-10T10:39:02.127Z,1.00
2019-01-10T10:41:34.073Z,1.00
2019-01-10T10:44:05.389Z,1.00
2019-01-10T10:46:36.766Z,1.00
2019-01-10T10:49:07.824Z,1.00
2019-01-10T10:51:39.260Z,1.10
2019-01-10T10:54:10.327Z,1.30
2019-01-10T10:56:42.614Z,1.30
2019-01-10T10:59:13.696Z,1.30
2019-01-10T11:01:45.364Z,1.20
2019-01-10T11:04:16.464Z,1.20
2019-01-10T11:06:47.869Z,1.10
2019-01-10T11:09:18.951Z,1.20
2019-01-10T11:11:50.252Z,1.30
2019-01-10T11:14:22.496Z,1.50
2019-01-10T11:16:53.688Z,1.50
2019-01-10T11:19:24.754Z,1.60
2019-01-10T11:21:56.050Z,1.50
2019-01-10T11:24:29.124Z,1.50
2019-01-10T11:27:00.580Z,1.50
2019-01-10T11:29:31.729Z,1.60
2019-01-10T11:32:03.079Z,1.40
2019-01-10T11:34:34.423Z,1.30
2019-01-10T11:37:09.361Z,1.30
2019-01-10T11:39:40.427Z,1.30
2019-01-10T11:42:12.755Z,1.40
2019-01-10T11:44:43.820Z,1.40
2019-01-10T11:47:15.272Z,1.30
2019-01-10T11:49:46.323Z,1.30
2019-01-10T11:52:17.751Z,1.20
2019-01-10T11:54:49.990Z,1.20
2019-01-10T11:57:22.599Z,1.30
2019-01-10T11:59:56.050Z,1.30
2019-01-10T12:02:36.103Z,1.30
2019-01-10T12:05:00.199Z,1.40
2019-01-10T12:07:31.583Z,1.20
2019-01-10T12:10:02.697Z,1.20
2019-01-10T12:12:34.178Z,1.10
2019-01-10T12:15:05.866Z,1.10
2019-01-10T12:17:37.281Z,1.00
2019-01-10T12:20:09.926Z,1.10
2019-01-10T12:22:41.428Z,1.20
2019-01-10T12:25:13.677Z,1.20
2019-01-10T12:27:46.928Z,1.30
2019-01-10T12:30:20.367Z,1.30
2019-01-10T12:32:51.608Z,1.30
2019-01-10T12:35:23.817Z,1.30
2019-01-10T12:37:55.233Z,1.30
2019-01-10T12:40:26.368Z,1.30
2019-01-10T12:42:57.654Z,1.20
2019-01-10T12:45:35.681Z,1.20
2019-01-10T12:48:06.881Z,1.10
2019-01-10T12:50:40.225Z,1.20
2019-01-10T12:53:13.705Z,1.30
2019-01-10T12:55:44.782Z,1.10
2019-01-10T12:58:16.149Z,1.20
2019-01-10T13:00:47.222Z,1.10
2019-01-10T13:03:18.525Z,1.10
2019-01-10T13:05:49.640Z,1.20
2019-01-10T13:08:20.921Z,1.20
2019-01-10T13:10:51.989Z,1.30
2019-01-10T13:13:24.332Z,1.30
2019-01-10T13:15:55.420Z,1.30
2019-01-10T13:18:26.828Z,1.30
2019-01-10T13:20:57.936Z,1.20
2019-01-10T13:23:29.623Z,1.10
2019-01-10T13:26:00.687Z,1.20
2019-01-10T13:28:32.119Z,1.30
2019-01-10T13:31:05.128Z,1.30
2019-01-10T13:33:36.457Z,1.30
2019-01-10T13:36:19.369Z,1.30
2019-01-10T13:38:50.608Z,1.10
2019-01-10T13:41:21.671Z,1.20
2019-01-10T13:43:53.096Z,1.20
2019-01-10T13:46:28.586Z,1.30
2019-01-10T13:49:00.200Z,1.20
2019-01-10T13:51:31.276Z,1.10
2019-01-10T13:54:02.664Z,1.10
2019-01-10T13:56:33.828Z,1.10
2019-01-10T13:59:05.296Z,1.20
2019-01-10T14:01:36.486Z,1.30
2019-01-10T14:04:08.800Z,1.20
2019-01-10T14:06:39.889Z,1.20
2019-01-10T14:09:11.914Z,1.20
2019-01-10T14:11:42.968Z,1.20
2019-01-10T14:14:14.402Z,1.10
2019-01-10T14:16:45.965Z,1.20
2019-01-10T14:19:17.293Z,1.20
2019-01-10T14:21:48.371Z,1.10
2019-01-10T14:24:19.717Z,1.00
2019-01-10T14:26:50.792Z,1.20
2019-01-10T14:29:22.494Z,1.10
2019-01-10T14:31:53.689Z,1.20
2019-01-10T14:34:25.181Z,1.20
2019-01-10T14:36:56.559Z,1.10
2019-01-10T14:39:27.981Z,1.10
2019-01-10T14:41:59.088Z,1.10
2019-01-10T14:44:30.270Z,1.20
2019-01-10T14:47:07.484Z,1.30
2019-01-10T14:49:34.396Z,1.30
2019-01-10T14:52:06.033Z,1.20
2019-01-10T14:54:37.297Z,1.20
2019-01-10T14:57:08.524Z,1.30
2019-01-10T14:59:41.429Z,1.30
2019-01-10T15:02:12.561Z,1.20
2019-01-10T15:04:45.402Z,1.20
2019-01-10T15:07:16.579Z,1.20
2019-01-10T15:09:47.756Z,1.10
2019-01-10T15:12:18.856Z,1.20
2019-01-10T15:14:50.234Z,1.10
2019-01-10T15:17:21.336Z,1.10
2019-01-10T15:20:13.487Z,1.00
2019-01-10T15:22:45.622Z,0.90
2019-01-10T15:25:16.859Z,0.90
2019-01-10T15:27:47.933Z,0.80
2019-01-10T15:30:21.458Z,0.80
2019-01-10T15:32:52.596Z,0.80
2019-01-10T15:35:24.468Z,0.80
2019-01-10T15:37:55.604Z,0.70
2019-01-10T15:40:35.858Z,0.80
2019-01-10T15:43:08.107Z,0.80
2019-01-10T15:45:39.486Z,0.70
2019-01-10T15:48:11.666Z,0.70
2019-01-10T15:50:42.998Z,0.80
2019-01-10T15:53:14.079Z,0.80
2019-01-10T15:55:45.491Z,0.70
2019-01-10T15:58:16.630Z,0.70
2019-01-10T16:00:47.966Z,0.70
2019-01-10T16:03:19.354Z,0.70
2019-01-10T16:05:50.639Z,0.80
2019-01-10T16:08:21.756Z,0.80
2019-01-10T16:10:53.486Z,0.80
2019-01-10T16:13:24.572Z,0.80
2019-01-10T16:15:55.850Z,0.70
2019-01-10T16:18:26.999Z,0.80
2019-01-10T16:20:58.186Z,0.70
2019-01-10T16:23:29.258Z,0.80
2019-01-10T16:26:00.481Z,0.80
2019-01-10T16:28:31.561Z,0.70
2019-01-10T16:31:02.784Z,0.80
2019-01-10T16:33:33.853Z,0.70
2019-01-10T16:36:05.435Z,0.70
2019-01-10T16:38:36.494Z,0.70
2019-01-10T16:41:07.776Z,0.70
2019-01-10T16:43:38.874Z,0.70
2019-01-10T16:46:10.218Z,0.70
2019-01-10T16:48:41.382Z,0.70
2019-01-10T16:51:12.726Z,0.70
2019-01-10T16:53:43.820Z,0.70
2019-01-10T16:56:15.022Z,0.60
2019-01-10T16:58:46.108Z,0.50
2019-01-10T17:01:17.563Z,0.50
2019-01-10T17:03:48.648Z,0.50
2019-01-10T17:06:19.967Z,0.50
2019-01-10T17:08:51.080Z,0.50
2019-01-10T17:11:22.355Z,0.50
2019-01-10T17:13:53.438Z,0.50
2019-01-10T17:16:24.739Z,0.50
2019-01-10T17:18:55.882Z,0.40
2019-01-10T17:21:27.267Z,0.40
2019-01-10T17:23:58.321Z,0.40
2019-01-10T17:26:29.605Z,0.40
2019-01-10T17:29:00.761Z,0.40
2019-01-10T17:31:33.855Z,0.40
2019-01-10T17:34:05.952Z,0.40
2019-01-10T17:36:37.320Z,0.40
2019-01-10T17:39:09.523Z,0.40
2019-01-10T17:41:41.903Z,0.30
2019-01-10T17:44:13.927Z,0.30
2019-01-10T17:46:45.209Z,0.30
2019-01-10T17:49:18.616Z,0.30
2019-01-10T17:51:50.064Z,0.30
2019-01-10T17:54:22.487Z,0.30
2019-01-10T17:56:54.306Z,0.30
2019-01-10T17:59:25.473Z,0.30
2019-01-10T18:01:56.791Z,0.20
2019-01-10T18:04:27.975Z,0.20
2019-01-10T18:06:59.285Z,0.30
2019-01-10T18:09:42.384Z,0.20
2019-01-10T18:12:15.089Z,0.10
2019-01-10T18:14:46.445Z,0.00
2019-01-10T18:17:17.757Z,0.00
2019-01-10T18:19:48.948Z,0.00
2019-01-10T18:22:23.644Z,-0.10
2019-01-10T18:24:54.824Z,-0.10
2019-01-10T18:27:27.132Z,-0.10
2019-01-10T18:30:01.327Z,0.00
2019-01-10T18:32:33.044Z,0.00
2019-01-10T18:35:04.510Z,0.00
2019-01-10T18:37:35.827Z,0.10
2019-01-10T18:40:07.800Z,0.10
2019-01-10T18:42:39.235Z,0.20
2019-01-10T18:45:15.558Z,0.20
2019-01-10T18:47:47.040Z,0.20
2019-01-10T18:50:20.047Z,0.20
2019-01-10T18:52:51.381Z,0.20
2019-01-10T18:55:22.577Z,0.20
2019-01-10T18:57:53.879Z,0.10
2019-01-10T19:00:27.078Z,0.20
2019-01-10T19:03:01.497Z,0.20
2019-01-10T19:05:32.945Z,0.20
2019-01-10T19:08:04.605Z,0.20
2019-01-10T19:10:36.175Z,0.20
2019-01-10T19:13:07.502Z,0.20
2019-01-10T19:15:38.794Z,0.20
2019-01-10T19:18:10.153Z,0.20
2019-01-10T19:20:41.337Z,0.30
2019-01-10T19:23:12.785Z,0.20
2019-01-10T19:25:43.981Z,0.10
2019-01-10T19:28:17.116Z,0.20
2019-01-10T19:30:48.370Z,0.10
2019-01-10T19:33:19.950Z,0.10
2019-01-10T19:35:52.349Z,0.10
2019-01-10T19:38:23.669Z,0.20
2019-01-10T19:40:54.860Z,0.20
2019-01-10T19:43:26.115Z,0.10
2019-01-10T19:45:57.371Z,0.10
2019-01-10T19:48:28.918Z,0.10
2019-01-10T19:51:00.153Z,0.10
2019-01-10T19:53:31.404Z,0.10
2019-01-10T19:56:02.979Z,0.10
2019-01-10T19:58:34.931Z,0.10
2019-01-10T20:01:06.112Z,0.10
2019-01-10T20:03:37.517Z,0.10
2019-01-10T20:06:08.675Z,0.20
2019-01-10T20:08:40.242Z,0.10
2019-01-10T20:11:11.377Z,0.10
2019-01-10T20:13:42.707Z,0.10
2019-01-10T20:16:13.876Z,0.10
2019-01-10T20:18:48.225Z,0.10
2019-01-10T20:21:19.575Z,0.10
2019-01-10T20:23:50.970Z,0.10
2019-01-10T20:26:22.180Z,0.10
2019-01-10T20:28:53.460Z,0.10
2019-01-10T20:31:24.747Z,0.10
2019-01-10T20:33:56.163Z,0.20
2019-01-10T20:36:27.379Z,0.10
2019-01-10T20:38:58.707Z,0.10
2019-01-10T20:41:30.196Z,0.10
2019-01-10T20:44:01.487Z,0.00
2019-01-10T20:46:32.729Z,0.00
2019-01-10T20:49:04.107Z,0.00
2019-01-10T20:51:35.298Z,0.00
2019-01-10T20:54:07.471Z,0.00
2019-01-10T20:56:38.589Z,0.00
2019-01-10T20:59:09.955Z,0.00
2019-01-10T21:01:41.232Z,0.00
2019-01-10T21:04:12.572Z,0.00
2019-01-10T21:06:44.875Z,0.00
2019-01-10T21:09:16.186Z,0.00
2019-01-10T21:11:48.629Z,-0.10
2019-01-10T21:14:19.998Z,-0.10
2019-01-10T21:16:52.391Z,-0.10
2019-01-10T21:19:23.913Z,-0.10
2019-01-10T21:21:55.051Z,-0.10
2019-01-10T21:24:26.361Z,-0.10
2019-01-10T21:26:57.519Z,-0.10
2019-01-10T21:29:29.063Z,-0.10
2019-01-10T21:32:00.264Z,-0.10
2019-01-10T21:34:31.413Z,-0.10
2019-01-10T21:37:02.522Z,0.00
2019-01-10T21:39:35.849Z,-0.10
2019-01-10T21:42:07.534Z,-0.20
2019-01-10T21:44:38.855Z,-0.20
2019-01-10T21:47:09.980Z,-0.20
2019-01-10T21:49:41.997Z,-0.20
2019-01-10T21:52:13.085Z,-0.10
2019-01-10T21:54:44.341Z,-0.10
2019-01-10T21:57:15.452Z,-0.20
2019-01-10T21:59:46.797Z,-0.20
2019-01-10T22:02:17.921Z,-0.20
2019-01-10T22:04:49.193Z,-0.10
2019-01-10T22:07:20.283Z,-0.10
2019-01-10T22:09:51.567Z,-0.10
2019-01-10T22:12:22.767Z,-0.10
2019-01-10T22:14:54.027Z,-0.10
2019-01-10T22:17:26.315Z,-0.10
2019-01-10T22:19:57.565Z,-0.20
2019-01-10T22:22:28.680Z,-0.20
2019-01-10T22:24:59.934Z,-0.20
2019-01-10T22:27:31.026Z,-0.20
2019-01-10T22:30:02.295Z,-0.20
2019-01-10T22:32:33.477Z,-0.30
2019-01-10T22:35:05.291Z,-0.20
2019-01-10T22:37:36.477Z,-0.20
2019-01-10T22:40:09.757Z,-0.20
2019-01-10T22:42:41.383Z,-0.20
2019-01-10T22:45:13.260Z,-0.20
2019-01-10T22:47:44.397Z,-0.20
2019-01-10T22:50:17.891Z,-0.30
2019-01-10T22:52:49.020Z,-0.20
2019-01-10T22:55:20.728Z,-0.20
2019-01-10T22:57:51.948Z,-0.20
2019-01-10T23:00:56.337Z,-0.20
2019-01-10T23:03:28.196Z,-0.30
2019-01-10T23:05:59.515Z,-0.20
2019-01-10T23:08:30.617Z,-0.20
2019-01-10T23:11:01.921Z,-0.20
2019-01-10T23:13:33.043Z,-0.20
2019-01-10T23:16:04.917Z,-0.30
2019-01-10T23:18:40.874Z,-0.30
2019-01-10T23:21:12.191Z,-0.30
2019-01-10T23:23:45.335Z,-0.20
2019-01-10T23:26:16.639Z,-0.30
2019-01-10T23:28:49.801Z,-0.30
2019-01-10T23:31:21.315Z,-0.20
2019-01-10T23:33:52.497Z,-0.20
2019-01-10T23:36:23.905Z,-0.10
2019-01-10T23:39:19.762Z,-0.20
2019-01-10T23:41:52.299Z,-0.20
2019-01-10T23:44:23.396Z,-0.20
2019-01-10T23:46:54.660Z,-0.10
2019-01-10T23:49:25.777Z,-0.20
2019-01-10T23:51:57.107Z,-0.10
2019-01-10T23:54:28.208Z,-0.10
2019-01-10T23:56:59.425Z,-0.20
2019-01-10T23:59:30.541Z,-0.20
